sensor_id;sensor_type;location;lat;lon;timestamp;P1;durP1;ratioP1;P2;durP2;ratioP2
4867;SDS011;2448;48.086;10.862;2022-07-01T00:00:08;4.23;;;0.80;;
4867;SDS011;2448;48.086;10.862;2022-07-01T00:02:40;0.90;;;0.70;;
4867;SDS011;2448;48.086;10.862;2022-07-01T00:05:05;0.80;;;0.80;;
4867;SDS011;2448;48.086;10.862;2022-07-01T00:07:43;1.42;;;0.85;;
4867;SDS011;2448;48.086;10.862;2022-07-01T00:10:09;0.60;;;0.60;;
4867;SDS011;2448;48.086;10.862;2022-07-01T00:12:34;0.83;;;0.83;;
4867;SDS011;2448;48.086;10.862;2022-07-01T00:14:59;0.70;;;0.70;;
4867;SDS011;2448;48.086;10.862;2022-07-01T00:17:25;2.70;;;0.80;;
4867;SDS011;2448;48.086;10.862;2022-07-01T00:19:50;1.47;;;0.90;;
4867;SDS011;2448;48.086;10.862;2022-07-01T00:22:16;0.60;;;0.60;;
4867;SDS011;2448;48.086;10.862;2022-07-01T00:24:42;1.00;;;0.80;;
4867;SDS011;2448;48.086;10.862;2022-07-01T00:27:07;4.10;;;0.70;;
4867;SDS011;2448;48.086;10.862;2022-07-01T00:29:33;1.27;;;0.80;;
4867;SDS011;2448;48.086;10.862;2022-07-01T00:31:59;0.80;;;0.80;;
4867;SDS011;2448;48.086;10.862;2022-07-01T00:34:24;0.80;;;0.80;;
4867;SDS011;2448;48.086;10.862;2022-07-01T00:36:49;0.70;;;0.70;;
4867;SDS011;2448;48.086;10.862;2022-07-01T00:39:15;13.13;;;1.40;;
4867;SDS011;2448;48.086;10.862;2022-07-01T00:41:41;0.77;;;0.77;;
4867;SDS011;2448;48.086;10.862;2022-07-01T00:44:15;0.70;;;0.70;;
4867;SDS011;2448;48.086;10.862;2022-07-01T00:46:40;2.10;;;1.17;;
4867;SDS011;2448;48.086;10.862;2022-07-01T00:49:06;5.40;;;1.40;;
4867;SDS011;2448;48.086;10.862;2022-07-01T00:51:31;0.80;;;0.80;;
4867;SDS011;2448;48.086;10.862;2022-07-01T00:53:56;0.80;;;0.80;;
4867;SDS011;2448;48.086;10.862;2022-07-01T00:56:24;0.70;;;0.70;;
4867;SDS011;2448;48.086;10.862;2022-07-01T00:58:50;0.70;;;0.70;;
4867;SDS011;2448;48.086;10.862;2022-07-01T01:01:15;0.97;;;0.97;;
4867;SDS011;2448;48.086;10.862;2022-07-01T01:03:41;0.80;;;0.80;;
4867;SDS011;2448;48.086;10.862;2022-07-01T01:06:06;0.80;;;0.80;;
4867;SDS011;2448;48.086;10.862;2022-07-01T01:08:32;0.90;;;0.90;;
4867;SDS011;2448;48.086;10.862;2022-07-01T01:10:57;0.70;;;0.70;;
4867;SDS011;2448;48.086;10.862;2022-07-01T01:13:23;0.70;;;0.70;;
4867;SDS011;2448;48.086;10.862;2022-07-01T01:15:48;0.80;;;0.80;;
4867;SDS011;2448;48.086;10.862;2022-07-01T01:18:14;1.57;;;1.27;;
4867;SDS011;2448;48.086;10.862;2022-07-01T01:20:39;1.00;;;1.00;;
4867;SDS011;2448;48.086;10.862;2022-07-01T01:23:04;0.80;;;0.80;;
4867;SDS011;2448;48.086;10.862;2022-07-01T01:25:33;0.77;;;0.77;;
4867;SDS011;2448;48.086;10.862;2022-07-01T01:27:59;0.80;;;0.80;;
4867;SDS011;2448;48.086;10.862;2022-07-01T01:30:25;0.90;;;0.90;;
4867;SDS011;2448;48.086;10.862;2022-07-01T01:32:50;1.00;;;1.00;;
4867;SDS011;2448;48.086;10.862;2022-07-01T01:35:15;1.10;;;1.10;;
4867;SDS011;2448;48.086;10.862;2022-07-01T01:37:41;1.47;;;1.30;;
4867;SDS011;2448;48.086;10.862;2022-07-01T01:40:06;1.03;;;1.03;;
4867;SDS011;2448;48.086;10.862;2022-07-01T01:42:32;0.97;;;0.97;;
4867;SDS011;2448;48.086;10.862;2022-07-01T01:44:57;1.00;;;1.00;;
4867;SDS011;2448;48.086;10.862;2022-07-01T01:47:23;0.80;;;0.73;;
4867;SDS011;2448;48.086;10.862;2022-07-01T01:49:48;2.73;;;1.03;;
4867;SDS011;2448;48.086;10.862;2022-07-01T01:52:14;1.00;;;1.00;;
4867;SDS011;2448;48.086;10.862;2022-07-01T01:54:39;1.07;;;1.07;;
4867;SDS011;2448;48.086;10.862;2022-07-01T01:57:05;0.93;;;0.93;;
4867;SDS011;2448;48.086;10.862;2022-07-01T01:59:30;1.23;;;1.13;;
4867;SDS011;2448;48.086;10.862;2022-07-01T02:01:56;0.90;;;0.90;;
4867;SDS011;2448;48.086;10.862;2022-07-01T02:04:21;1.13;;;1.10;;
4867;SDS011;2448;48.086;10.862;2022-07-01T02:06:49;1.43;;;1.33;;
4867;SDS011;2448;48.086;10.862;2022-07-01T02:09:14;2.17;;;1.10;;
4867;SDS011;2448;48.086;10.862;2022-07-01T02:11:40;2.10;;;1.03;;
4867;SDS011;2448;48.086;10.862;2022-07-01T02:14:05;1.00;;;1.00;;
4867;SDS011;2448;48.086;10.862;2022-07-01T02:16:31;1.20;;;1.20;;
4867;SDS011;2448;48.086;10.862;2022-07-01T02:18:56;1.03;;;1.03;;
4867;SDS011;2448;48.086;10.862;2022-07-01T02:21:22;2.47;;;1.47;;
4867;SDS011;2448;48.086;10.862;2022-07-01T02:23:47;2.20;;;1.10;;
4867;SDS011;2448;48.086;10.862;2022-07-01T02:26:13;13.33;;;1.50;;
4867;SDS011;2448;48.086;10.862;2022-07-01T02:28:38;1.20;;;1.20;;
4867;SDS011;2448;48.086;10.862;2022-07-01T02:31:04;1.20;;;1.20;;
4867;SDS011;2448;48.086;10.862;2022-07-01T02:33:29;1.10;;;1.10;;
4867;SDS011;2448;48.086;10.862;2022-07-01T02:35:55;0.80;;;0.80;;
4867;SDS011;2448;48.086;10.862;2022-07-01T02:38:20;0.83;;;0.83;;
4867;SDS011;2448;48.086;10.862;2022-07-01T02:40:45;1.60;;;1.00;;
4867;SDS011;2448;48.086;10.862;2022-07-01T02:43:11;1.10;;;1.10;;
4867;SDS011;2448;48.086;10.862;2022-07-01T02:45:36;1.03;;;1.03;;
4867;SDS011;2448;48.086;10.862;2022-07-01T02:48:02;0.93;;;0.93;;
4867;SDS011;2448;48.086;10.862;2022-07-01T02:50:27;0.97;;;0.97;;
4867;SDS011;2448;48.086;10.862;2022-07-01T02:52:53;0.90;;;0.90;;
4867;SDS011;2448;48.086;10.862;2022-07-01T02:55:18;1.40;;;1.30;;
4867;SDS011;2448;48.086;10.862;2022-07-01T02:57:44;0.97;;;0.97;;
4867;SDS011;2448;48.086;10.862;2022-07-01T03:00:11;1.10;;;1.10;;
4867;SDS011;2448;48.086;10.862;2022-07-01T03:02:37;0.90;;;0.90;;
4867;SDS011;2448;48.086;10.862;2022-07-01T03:05:02;1.10;;;1.10;;
4867;SDS011;2448;48.086;10.862;2022-07-01T03:07:28;1.00;;;1.00;;
4867;SDS011;2448;48.086;10.862;2022-07-01T03:09:54;1.47;;;1.30;;
4867;SDS011;2448;48.086;10.862;2022-07-01T03:12:19;1.07;;;1.07;;
4867;SDS011;2448;48.086;10.862;2022-07-01T03:17:16;0.90;;;0.90;;
4867;SDS011;2448;48.086;10.862;2022-07-01T03:19:41;4.00;;;1.40;;
4867;SDS011;2448;48.086;10.862;2022-07-01T03:22:07;2.30;;;1.13;;
4867;SDS011;2448;48.086;10.862;2022-07-01T03:24:32;0.80;;;0.80;;
4867;SDS011;2448;48.086;10.862;2022-07-01T03:26:57;1.23;;;1.23;;
4867;SDS011;2448;48.086;10.862;2022-07-01T03:29:24;1.40;;;1.30;;
4867;SDS011;2448;48.086;10.862;2022-07-01T03:31:49;0.90;;;0.90;;
4867;SDS011;2448;48.086;10.862;2022-07-01T03:34:15;1.30;;;1.20;;
4867;SDS011;2448;48.086;10.862;2022-07-01T03:36:40;1.10;;;1.10;;
4867;SDS011;2448;48.086;10.862;2022-07-01T03:39:06;1.00;;;1.00;;
4867;SDS011;2448;48.086;10.862;2022-07-01T03:41:31;2.97;;;1.30;;
4867;SDS011;2448;48.086;10.862;2022-07-01T03:43:56;0.93;;;0.93;;
4867;SDS011;2448;48.086;10.862;2022-07-01T03:46:22;7.20;;;1.10;;
4867;SDS011;2448;48.086;10.862;2022-07-01T03:48:47;1.13;;;1.10;;
4867;SDS011;2448;48.086;10.862;2022-07-01T03:51:12;1.20;;;1.10;;
4867;SDS011;2448;48.086;10.862;2022-07-01T03:53:38;1.30;;;1.30;;
4867;SDS011;2448;48.086;10.862;2022-07-01T03:56:22;1.30;;;1.30;;
4867;SDS011;2448;48.086;10.862;2022-07-01T03:58:47;7.63;;;1.33;;
4867;SDS011;2448;48.086;10.862;2022-07-01T04:01:13;2.93;;;1.23;;
4867;SDS011;2448;48.086;10.862;2022-07-01T04:03:38;1.30;;;1.20;;
4867;SDS011;2448;48.086;10.862;2022-07-01T04:06:03;1.20;;;1.20;;
4867;SDS011;2448;48.086;10.862;2022-07-01T04:08:29;1.10;;;1.10;;
4867;SDS011;2448;48.086;10.862;2022-07-01T04:10:55;1.50;;;1.40;;
4867;SDS011;2448;48.086;10.862;2022-07-01T04:13:22;1.60;;;1.50;;
4867;SDS011;2448;48.086;10.862;2022-07-01T04:15:47;1.80;;;1.47;;
4867;SDS011;2448;48.086;10.862;2022-07-01T04:18:13;1.53;;;1.50;;
4867;SDS011;2448;48.086;10.862;2022-07-01T04:20:38;1.20;;;1.20;;
4867;SDS011;2448;48.086;10.862;2022-07-01T04:23:03;1.60;;;1.50;;
4867;SDS011;2448;48.086;10.862;2022-07-01T04:25:29;2.83;;;1.63;;
4867;SDS011;2448;48.086;10.862;2022-07-01T04:27:55;1.17;;;1.17;;
4867;SDS011;2448;48.086;10.862;2022-07-01T04:30:21;1.10;;;1.10;;
4867;SDS011;2448;48.086;10.862;2022-07-01T04:32:46;1.30;;;1.20;;
4867;SDS011;2448;48.086;10.862;2022-07-01T04:35:12;1.63;;;1.30;;
4867;SDS011;2448;48.086;10.862;2022-07-01T04:37:39;2.17;;;1.20;;
4867;SDS011;2448;48.086;10.862;2022-07-01T04:40:05;3.07;;;1.80;;
4867;SDS011;2448;48.086;10.862;2022-07-01T04:42:31;4.23;;;1.67;;
4867;SDS011;2448;48.086;10.862;2022-07-01T04:44:56;1.80;;;1.70;;
4867;SDS011;2448;48.086;10.862;2022-07-01T04:47:21;2.63;;;1.67;;
4867;SDS011;2448;48.086;10.862;2022-07-01T04:49:48;1.50;;;1.40;;
4867;SDS011;2448;48.086;10.862;2022-07-01T04:52:14;2.30;;;1.70;;
4867;SDS011;2448;48.086;10.862;2022-07-01T04:54:40;1.65;;;1.55;;
4867;SDS011;2448;48.086;10.862;2022-07-01T04:57:05;1.30;;;1.23;;
4867;SDS011;2448;48.086;10.862;2022-07-01T04:59:31;1.10;;;1.10;;
4867;SDS011;2448;48.086;10.862;2022-07-01T05:01:56;8.13;;;1.73;;
4867;SDS011;2448;48.086;10.862;2022-07-01T05:04:23;6.25;;;1.45;;
4867;SDS011;2448;48.086;10.862;2022-07-01T05:06:51;1.70;;;1.60;;
4867;SDS011;2448;48.086;10.862;2022-07-01T05:09:16;1.57;;;1.47;;
4867;SDS011;2448;48.086;10.862;2022-07-01T05:11:42;0.90;;;0.80;;
4867;SDS011;2448;48.086;10.862;2022-07-01T05:14:07;2.40;;;1.40;;
4867;SDS011;2448;48.086;10.862;2022-07-01T05:16:33;1.40;;;1.30;;
4867;SDS011;2448;48.086;10.862;2022-07-01T05:18:59;5.20;;;1.10;;
4867;SDS011;2448;48.086;10.862;2022-07-01T05:21:43;1.70;;;1.60;;
4867;SDS011;2448;48.086;10.862;2022-07-01T05:24:30;1.30;;;1.30;;
4867;SDS011;2448;48.086;10.862;2022-07-01T05:26:56;1.07;;;1.07;;
4867;SDS011;2448;48.086;10.862;2022-07-01T05:29:22;0.90;;;0.90;;
4867;SDS011;2448;48.086;10.862;2022-07-01T05:31:47;1.50;;;1.40;;
4867;SDS011;2448;48.086;10.862;2022-07-01T05:34:13;1.20;;;1.17;;
4867;SDS011;2448;48.086;10.862;2022-07-01T05:36:38;0.97;;;0.97;;
4867;SDS011;2448;48.086;10.862;2022-07-01T05:39:03;1.30;;;1.30;;
4867;SDS011;2448;48.086;10.862;2022-07-01T05:41:29;1.20;;;1.20;;
4867;SDS011;2448;48.086;10.862;2022-07-01T05:43:55;1.23;;;1.13;;
4867;SDS011;2448;48.086;10.862;2022-07-01T05:46:20;3.63;;;1.17;;
4867;SDS011;2448;48.086;10.862;2022-07-01T05:48:45;1.60;;;1.10;;
4867;SDS011;2448;48.086;10.862;2022-07-01T05:51:11;1.20;;;1.10;;
4867;SDS011;2448;48.086;10.862;2022-07-01T05:53:36;1.30;;;1.30;;
4867;SDS011;2448;48.086;10.862;2022-07-01T05:56:02;10.03;;;1.10;;
4867;SDS011;2448;48.086;10.862;2022-07-01T05:58:27;1.20;;;1.20;;
4867;SDS011;2448;48.086;10.862;2022-07-01T06:00:52;1.37;;;1.30;;
4867;SDS011;2448;48.086;10.862;2022-07-01T06:03:18;6.63;;;1.30;;
4867;SDS011;2448;48.086;10.862;2022-07-01T06:05:44;1.47;;;1.37;;
4867;SDS011;2448;48.086;10.862;2022-07-01T06:08:09;1.30;;;1.30;;
4867;SDS011;2448;48.086;10.862;2022-07-01T06:10:35;2.20;;;1.03;;
4867;SDS011;2448;48.086;10.862;2022-07-01T06:13:01;0.83;;;0.83;;
4867;SDS011;2448;48.086;10.862;2022-07-01T06:15:26;0.90;;;0.90;;
4867;SDS011;2448;48.086;10.862;2022-07-01T06:17:52;0.90;;;0.90;;
4867;SDS011;2448;48.086;10.862;2022-07-01T06:20:17;0.90;;;0.90;;
4867;SDS011;2448;48.086;10.862;2022-07-01T06:22:43;1.30;;;1.10;;
4867;SDS011;2448;48.086;10.862;2022-07-01T06:25:08;0.80;;;0.80;;
4867;SDS011;2448;48.086;10.862;2022-07-01T06:27:40;0.60;;;0.60;;
4867;SDS011;2448;48.086;10.862;2022-07-01T06:30:06;0.90;;;0.90;;
4867;SDS011;2448;48.086;10.862;2022-07-01T06:32:32;0.63;;;0.63;;
4867;SDS011;2448;48.086;10.862;2022-07-01T06:34:57;0.80;;;0.80;;
4867;SDS011;2448;48.086;10.862;2022-07-01T06:37:23;0.93;;;0.80;;
4867;SDS011;2448;48.086;10.862;2022-07-01T06:39:48;0.70;;;0.70;;
4867;SDS011;2448;48.086;10.862;2022-07-01T06:42:13;1.47;;;1.00;;
4867;SDS011;2448;48.086;10.862;2022-07-01T06:44:42;0.73;;;0.73;;
4867;SDS011;2448;48.086;10.862;2022-07-01T06:47:07;0.80;;;0.80;;
4867;SDS011;2448;48.086;10.862;2022-07-01T06:49:33;0.70;;;0.70;;
4867;SDS011;2448;48.086;10.862;2022-07-01T06:51:58;4.50;;;1.00;;
4867;SDS011;2448;48.086;10.862;2022-07-01T06:54:24;0.80;;;0.80;;
4867;SDS011;2448;48.086;10.862;2022-07-01T06:56:49;2.63;;;1.07;;
4867;SDS011;2448;48.086;10.862;2022-07-01T06:59:14;0.70;;;0.70;;
4867;SDS011;2448;48.086;10.862;2022-07-01T07:01:40;0.80;;;0.70;;
4867;SDS011;2448;48.086;10.862;2022-07-01T07:04:06;1.63;;;1.00;;
4867;SDS011;2448;48.086;10.862;2022-07-01T07:06:31;1.63;;;1.20;;
4867;SDS011;2448;48.086;10.862;2022-07-01T07:08:57;0.90;;;0.90;;
4867;SDS011;2448;48.086;10.862;2022-07-01T07:11:22;0.90;;;0.90;;
4867;SDS011;2448;48.086;10.862;2022-07-01T07:13:47;0.80;;;0.80;;
4867;SDS011;2448;48.086;10.862;2022-07-01T07:16:13;1.00;;;1.00;;
4867;SDS011;2448;48.086;10.862;2022-07-01T07:18:39;1.67;;;1.00;;
4867;SDS011;2448;48.086;10.862;2022-07-01T07:21:04;0.80;;;0.80;;
4867;SDS011;2448;48.086;10.862;2022-07-01T07:23:29;0.90;;;0.90;;
4867;SDS011;2448;48.086;10.862;2022-07-01T07:25:55;0.80;;;0.80;;
4867;SDS011;2448;48.086;10.862;2022-07-01T07:28:21;1.67;;;1.20;;
4867;SDS011;2448;48.086;10.862;2022-07-01T07:30:46;3.77;;;1.17;;
4867;SDS011;2448;48.086;10.862;2022-07-01T07:33:13;1.23;;;1.07;;
4867;SDS011;2448;48.086;10.862;2022-07-01T07:35:38;1.00;;;0.97;;
4867;SDS011;2448;48.086;10.862;2022-07-01T07:38:04;0.83;;;0.83;;
4867;SDS011;2448;48.086;10.862;2022-07-01T07:40:29;0.87;;;0.87;;
4867;SDS011;2448;48.086;10.862;2022-07-01T07:42:54;0.90;;;0.90;;
4867;SDS011;2448;48.086;10.862;2022-07-01T07:45:20;1.90;;;1.03;;
4867;SDS011;2448;48.086;10.862;2022-07-01T07:47:46;0.83;;;0.83;;
4867;SDS011;2448;48.086;10.862;2022-07-01T07:50:13;0.90;;;0.90;;
4867;SDS011;2448;48.086;10.862;2022-07-01T07:52:39;1.33;;;1.17;;
4867;SDS011;2448;48.086;10.862;2022-07-01T07:55:05;1.43;;;0.90;;
4867;SDS011;2448;48.086;10.862;2022-07-01T07:57:31;0.70;;;0.70;;
4867;SDS011;2448;48.086;10.862;2022-07-01T07:59:56;1.10;;;1.10;;
4867;SDS011;2448;48.086;10.862;2022-07-01T08:02:22;0.93;;;0.60;;
4867;SDS011;2448;48.086;10.862;2022-07-01T08:04:47;0.80;;;0.80;;
4867;SDS011;2448;48.086;10.862;2022-07-01T08:07:13;0.80;;;0.80;;
4867;SDS011;2448;48.086;10.862;2022-07-01T08:09:38;0.80;;;0.80;;
4867;SDS011;2448;48.086;10.862;2022-07-01T08:12:03;1.43;;;0.70;;
4867;SDS011;2448;48.086;10.862;2022-07-01T08:14:29;1.10;;;0.77;;
4867;SDS011;2448;48.086;10.862;2022-07-01T08:16:55;0.60;;;0.60;;
4867;SDS011;2448;48.086;10.862;2022-07-01T08:19:20;0.80;;;0.80;;
4867;SDS011;2448;48.086;10.862;2022-07-01T08:21:45;0.97;;;0.97;;
4867;SDS011;2448;48.086;10.862;2022-07-01T08:24:11;0.70;;;0.70;;
4867;SDS011;2448;48.086;10.862;2022-07-01T08:26:36;0.90;;;0.90;;
4867;SDS011;2448;48.086;10.862;2022-07-01T08:29:02;1.40;;;0.90;;
4867;SDS011;2448;48.086;10.862;2022-07-01T08:31:29;0.50;;;0.50;;
4867;SDS011;2448;48.086;10.862;2022-07-01T08:33:55;0.70;;;0.70;;
4867;SDS011;2448;48.086;10.862;2022-07-01T08:36:20;0.70;;;0.70;;
4867;SDS011;2448;48.086;10.862;2022-07-01T08:38:46;0.70;;;0.70;;
4867;SDS011;2448;48.086;10.862;2022-07-01T08:41:13;1.03;;;1.03;;
4867;SDS011;2448;48.086;10.862;2022-07-01T08:43:38;0.60;;;0.60;;
4867;SDS011;2448;48.086;10.862;2022-07-01T08:46:04;0.90;;;0.90;;
4867;SDS011;2448;48.086;10.862;2022-07-01T08:48:29;0.73;;;0.73;;
4867;SDS011;2448;48.086;10.862;2022-07-01T08:50:55;0.60;;;0.60;;
4867;SDS011;2448;48.086;10.862;2022-07-01T08:53:21;0.88;;;0.88;;
4867;SDS011;2448;48.086;10.862;2022-07-01T08:55:46;0.80;;;0.80;;
4867;SDS011;2448;48.086;10.862;2022-07-01T08:58:30;0.50;;;0.50;;
4867;SDS011;2448;48.086;10.862;2022-07-01T09:03:40;0.60;;;0.60;;
4867;SDS011;2448;48.086;10.862;2022-07-01T09:06:16;0.80;;;0.80;;
4867;SDS011;2448;48.086;10.862;2022-07-01T09:08:42;0.63;;;0.63;;
4867;SDS011;2448;48.086;10.862;2022-07-01T09:11:26;0.93;;;0.93;;
4867;SDS011;2448;48.086;10.862;2022-07-01T09:14:04;0.73;;;0.73;;
4867;SDS011;2448;48.086;10.862;2022-07-01T09:16:32;0.70;;;0.70;;
4867;SDS011;2448;48.086;10.862;2022-07-01T09:19:03;1.03;;;0.90;;
4867;SDS011;2448;48.086;10.862;2022-07-01T09:21:29;0.70;;;0.70;;
4867;SDS011;2448;48.086;10.862;2022-07-01T09:23:55;0.80;;;0.80;;
4867;SDS011;2448;48.086;10.862;2022-07-01T09:26:21;0.60;;;0.60;;
4867;SDS011;2448;48.086;10.862;2022-07-01T09:28:52;0.70;;;0.70;;
4867;SDS011;2448;48.086;10.862;2022-07-01T09:31:17;1.20;;;1.10;;
4867;SDS011;2448;48.086;10.862;2022-07-01T09:33:43;1.00;;;0.90;;
4867;SDS011;2448;48.086;10.862;2022-07-01T09:36:08;0.80;;;0.80;;
4867;SDS011;2448;48.086;10.862;2022-07-01T09:38:44;0.80;;;0.80;;
4867;SDS011;2448;48.086;10.862;2022-07-01T09:41:10;0.80;;;0.80;;
4867;SDS011;2448;48.086;10.862;2022-07-01T09:43:37;0.80;;;0.80;;
4867;SDS011;2448;48.086;10.862;2022-07-01T09:46:03;0.60;;;0.60;;
4867;SDS011;2448;48.086;10.862;2022-07-01T09:50:57;1.37;;;0.83;;
4867;SDS011;2448;48.086;10.862;2022-07-01T09:53:22;0.90;;;0.90;;
4867;SDS011;2448;48.086;10.862;2022-07-01T09:55:48;0.87;;;0.70;;
4867;SDS011;2448;48.086;10.862;2022-07-01T09:58:13;0.70;;;0.70;;
4867;SDS011;2448;48.086;10.862;2022-07-01T10:00:38;0.67;;;0.67;;
4867;SDS011;2448;48.086;10.862;2022-07-01T10:03:04;0.60;;;0.60;;
4867;SDS011;2448;48.086;10.862;2022-07-01T10:05:31;3.13;;;0.60;;
4867;SDS011;2448;48.086;10.862;2022-07-01T10:13:43;0.70;;;0.70;;
4867;SDS011;2448;48.086;10.862;2022-07-01T10:16:09;0.73;;;0.73;;
4867;SDS011;2448;48.086;10.862;2022-07-01T10:18:35;0.70;;;0.70;;
4867;SDS011;2448;48.086;10.862;2022-07-01T10:21:01;0.87;;;0.87;;
4867;SDS011;2448;48.086;10.862;2022-07-01T10:23:30;0.90;;;0.90;;
4867;SDS011;2448;48.086;10.862;2022-07-01T10:26:04;0.90;;;0.90;;
4867;SDS011;2448;48.086;10.862;2022-07-01T10:28:40;0.70;;;0.70;;
4867;SDS011;2448;48.086;10.862;2022-07-01T10:31:11;0.90;;;0.90;;
4867;SDS011;2448;48.086;10.862;2022-07-01T10:33:48;1.17;;;0.80;;
4867;SDS011;2448;48.086;10.862;2022-07-01T10:41:32;0.73;;;0.67;;
4867;SDS011;2448;48.086;10.862;2022-07-01T10:43:58;0.60;;;0.60;;
4867;SDS011;2448;48.086;10.862;2022-07-01T10:52:01;3.20;;;0.93;;
4867;SDS011;2448;48.086;10.862;2022-07-01T10:59:52;0.83;;;0.83;;
4867;SDS011;2448;48.086;10.862;2022-07-01T11:02:22;0.93;;;0.93;;
4867;SDS011;2448;48.086;10.862;2022-07-01T11:04:48;0.80;;;0.80;;
4867;SDS011;2448;48.086;10.862;2022-07-01T11:07:14;0.87;;;0.87;;
4867;SDS011;2448;48.086;10.862;2022-07-01T11:09:39;0.70;;;0.70;;
4867;SDS011;2448;48.086;10.862;2022-07-01T11:12:05;0.80;;;0.80;;
4867;SDS011;2448;48.086;10.862;2022-07-01T11:14:38;0.60;;;0.60;;
4867;SDS011;2448;48.086;10.862;2022-07-01T11:17:04;1.20;;;1.10;;
4867;SDS011;2448;48.086;10.862;2022-07-01T11:19:30;0.90;;;0.90;;
4867;SDS011;2448;48.086;10.862;2022-07-01T11:21:55;0.90;;;0.90;;
4867;SDS011;2448;48.086;10.862;2022-07-01T11:24:21;3.53;;;0.97;;
4867;SDS011;2448;48.086;10.862;2022-07-01T11:26:47;0.97;;;0.97;;
4867;SDS011;2448;48.086;10.862;2022-07-01T11:29:13;1.10;;;1.00;;
4867;SDS011;2448;48.086;10.862;2022-07-01T11:31:39;0.90;;;0.90;;
4867;SDS011;2448;48.086;10.862;2022-07-01T11:34:04;0.97;;;0.97;;
4867;SDS011;2448;48.086;10.862;2022-07-01T11:36:31;0.87;;;0.87;;
4867;SDS011;2448;48.086;10.862;2022-07-01T11:39:19;1.03;;;1.00;;
4867;SDS011;2448;48.086;10.862;2022-07-01T11:41:57;0.87;;;0.87;;
4867;SDS011;2448;48.086;10.862;2022-07-01T11:46:57;0.83;;;0.83;;
4867;SDS011;2448;48.086;10.862;2022-07-01T11:49:23;1.00;;;1.00;;
4867;SDS011;2448;48.086;10.862;2022-07-01T11:52:09;0.90;;;0.90;;
4867;SDS011;2448;48.086;10.862;2022-07-01T11:54:38;0.80;;;0.80;;
4867;SDS011;2448;48.086;10.862;2022-07-01T11:57:08;1.37;;;1.27;;
4867;SDS011;2448;48.086;10.862;2022-07-01T11:59:34;3.03;;;1.20;;
4867;SDS011;2448;48.086;10.862;2022-07-01T12:01:59;0.97;;;0.97;;
4867;SDS011;2448;48.086;10.862;2022-07-01T12:04:25;2.13;;;1.00;;
4867;SDS011;2448;48.086;10.862;2022-07-01T12:06:51;1.03;;;0.93;;
4867;SDS011;2448;48.086;10.862;2022-07-01T12:09:17;1.00;;;1.00;;
4867;SDS011;2448;48.086;10.862;2022-07-01T12:11:44;0.90;;;0.90;;
4867;SDS011;2448;48.086;10.862;2022-07-01T12:14:09;1.10;;;1.10;;
4867;SDS011;2448;48.086;10.862;2022-07-01T12:16:41;0.83;;;0.83;;
4867;SDS011;2448;48.086;10.862;2022-07-01T12:19:07;1.20;;;1.20;;
4867;SDS011;2448;48.086;10.862;2022-07-01T12:21:46;13.20;;;1.37;;
4867;SDS011;2448;48.086;10.862;2022-07-01T12:24:12;1.30;;;1.23;;
4867;SDS011;2448;48.086;10.862;2022-07-01T12:29:16;1.00;;;1.00;;
4867;SDS011;2448;48.086;10.862;2022-07-01T12:31:42;1.00;;;1.00;;
4867;SDS011;2448;48.086;10.862;2022-07-01T12:34:08;1.80;;;1.33;;
4867;SDS011;2448;48.086;10.862;2022-07-01T12:36:33;1.30;;;1.30;;
4867;SDS011;2448;48.086;10.862;2022-07-01T12:38:59;1.10;;;1.10;;
4867;SDS011;2448;48.086;10.862;2022-07-01T12:41:32;10.57;;;1.60;;
4867;SDS011;2448;48.086;10.862;2022-07-01T12:44:01;1.53;;;1.43;;
4867;SDS011;2448;48.086;10.862;2022-07-01T12:46:30;0.90;;;0.90;;
4867;SDS011;2448;48.086;10.862;2022-07-01T12:48:56;1.30;;;1.30;;
4867;SDS011;2448;48.086;10.862;2022-07-01T12:51:28;1.30;;;1.30;;
4867;SDS011;2448;48.086;10.862;2022-07-01T12:53:53;1.30;;;1.20;;
4867;SDS011;2448;48.086;10.862;2022-07-01T12:56:22;1.23;;;1.13;;
4867;SDS011;2448;48.086;10.862;2022-07-01T12:58:49;1.77;;;1.37;;
4867;SDS011;2448;48.086;10.862;2022-07-01T13:01:14;1.50;;;1.50;;
4867;SDS011;2448;48.086;10.862;2022-07-01T13:03:40;1.60;;;1.50;;
4867;SDS011;2448;48.086;10.862;2022-07-01T13:06:06;1.33;;;1.27;;
4867;SDS011;2448;48.086;10.862;2022-07-01T13:08:31;1.10;;;1.10;;
4867;SDS011;2448;48.086;10.862;2022-07-01T13:10:56;0.90;;;0.90;;
4867;SDS011;2448;48.086;10.862;2022-07-01T13:13:22;1.00;;;1.00;;
4867;SDS011;2448;48.086;10.862;2022-07-01T13:15:48;1.27;;;1.27;;
4867;SDS011;2448;48.086;10.862;2022-07-01T13:18:14;1.53;;;1.47;;
4867;SDS011;2448;48.086;10.862;2022-07-01T13:20:40;1.50;;;1.40;;
4867;SDS011;2448;48.086;10.862;2022-07-01T13:23:05;1.30;;;1.20;;
4867;SDS011;2448;48.086;10.862;2022-07-01T13:25:30;1.40;;;1.30;;
4867;SDS011;2448;48.086;10.862;2022-07-01T13:27:56;1.10;;;1.10;;
4867;SDS011;2448;48.086;10.862;2022-07-01T13:30:22;2.63;;;1.30;;
4867;SDS011;2448;48.086;10.862;2022-07-01T13:32:48;1.63;;;0.98;;
4867;SDS011;2448;48.086;10.862;2022-07-01T13:35:17;1.10;;;1.00;;
4867;SDS011;2448;48.086;10.862;2022-07-01T13:37:43;1.60;;;1.50;;
4867;SDS011;2448;48.086;10.862;2022-07-01T13:40:08;1.23;;;1.13;;
4867;SDS011;2448;48.086;10.862;2022-07-01T13:42:35;2.08;;;1.60;;
4867;SDS011;2448;48.086;10.862;2022-07-01T13:45:00;3.70;;;2.47;;
4867;SDS011;2448;48.086;10.862;2022-07-01T13:47:25;1.63;;;1.53;;
4867;SDS011;2448;48.086;10.862;2022-07-01T13:49:51;2.67;;;1.60;;
4867;SDS011;2448;48.086;10.862;2022-07-01T13:52:16;1.07;;;1.07;;
4867;SDS011;2448;48.086;10.862;2022-07-01T13:54:42;1.60;;;1.50;;
4867;SDS011;2448;48.086;10.862;2022-07-01T13:57:07;3.60;;;1.40;;
4867;SDS011;2448;48.086;10.862;2022-07-01T13:59:33;1.43;;;1.33;;
4867;SDS011;2448;48.086;10.862;2022-07-01T14:01:58;1.40;;;1.30;;
4867;SDS011;2448;48.086;10.862;2022-07-01T14:04:24;1.13;;;1.13;;
4867;SDS011;2448;48.086;10.862;2022-07-01T14:06:49;1.60;;;1.50;;
4867;SDS011;2448;48.086;10.862;2022-07-01T14:09:15;1.27;;;1.23;;
4867;SDS011;2448;48.086;10.862;2022-07-01T14:11:40;1.15;;;1.15;;
4867;SDS011;2448;48.086;10.862;2022-07-01T14:14:05;1.40;;;1.30;;
4867;SDS011;2448;48.086;10.862;2022-07-01T14:16:31;0.80;;;0.80;;
4867;SDS011;2448;48.086;10.862;2022-07-01T14:18:56;1.10;;;1.10;;
4867;SDS011;2448;48.086;10.862;2022-07-01T14:21:22;1.50;;;1.40;;
4867;SDS011;2448;48.086;10.862;2022-07-01T14:23:47;1.30;;;1.30;;
4867;SDS011;2448;48.086;10.862;2022-07-01T14:26:13;1.20;;;1.20;;
4867;SDS011;2448;48.086;10.862;2022-07-01T14:28:38;1.13;;;1.13;;
4867;SDS011;2448;48.086;10.862;2022-07-01T14:31:04;1.40;;;1.30;;
4867;SDS011;2448;48.086;10.862;2022-07-01T14:33:30;1.50;;;1.33;;
4867;SDS011;2448;48.086;10.862;2022-07-01T14:35:55;1.13;;;1.03;;
4867;SDS011;2448;48.086;10.862;2022-07-01T14:38:21;1.60;;;1.20;;
4867;SDS011;2448;48.086;10.862;2022-07-01T14:40:46;1.38;;;1.35;;
4867;SDS011;2448;48.086;10.862;2022-07-01T14:43:12;1.10;;;1.10;;
4867;SDS011;2448;48.086;10.862;2022-07-01T14:45:37;1.00;;;1.00;;
4867;SDS011;2448;48.086;10.862;2022-07-01T14:48:03;0.93;;;0.93;;
4867;SDS011;2448;48.086;10.862;2022-07-01T14:50:28;1.73;;;1.57;;
4867;SDS011;2448;48.086;10.862;2022-07-01T14:52:55;1.10;;;1.10;;
4867;SDS011;2448;48.086;10.862;2022-07-01T14:55:20;1.05;;;1.05;;
4867;SDS011;2448;48.086;10.862;2022-07-01T14:57:45;1.67;;;1.30;;
4867;SDS011;2448;48.086;10.862;2022-07-01T15:00:11;1.40;;;1.40;;
4867;SDS011;2448;48.086;10.862;2022-07-01T15:02:37;1.30;;;1.30;;
4867;SDS011;2448;48.086;10.862;2022-07-01T15:05:02;1.60;;;1.50;;
4867;SDS011;2448;48.086;10.862;2022-07-01T15:07:28;1.13;;;1.10;;
4867;SDS011;2448;48.086;10.862;2022-07-01T15:09:53;1.80;;;1.70;;
4867;SDS011;2448;48.086;10.862;2022-07-01T15:12:21;1.13;;;1.13;;
4867;SDS011;2448;48.086;10.862;2022-07-01T15:14:47;1.17;;;1.10;;
4867;SDS011;2448;48.086;10.862;2022-07-01T15:17:12;0.87;;;0.87;;
4867;SDS011;2448;48.086;10.862;2022-07-01T15:19:37;0.80;;;0.80;;
4867;SDS011;2448;48.086;10.862;2022-07-01T15:22:04;0.67;;;0.67;;
4867;SDS011;2448;48.086;10.862;2022-07-01T15:24:29;0.73;;;0.73;;
4867;SDS011;2448;48.086;10.862;2022-07-01T15:26:55;0.70;;;0.70;;
4867;SDS011;2448;48.086;10.862;2022-07-01T15:29:20;0.80;;;0.80;;